Time;durP1;ratioP1;P1;durP2;ratioP2;P2;SDS_P1;SDS_P2;PMS_P1;PMS_P2;Temp;Humidity;BMP_temperature;BMP_pressure;BME280_temperature;BME280_humidity;BME280_pressure;Samples;Min_cycle;Max_cycle;Signal;HPM_P1;HPM_P2
2023/12/16 00:02:19;;;;;;;0.20;0.20;;;;;;;15.98;46.13;103831.16;5051745;28;20501;-68
2023/12/16 00:04:44;;;;;;;0.32;0.32;;;;;;;16.06;45.94;103828.34;5051137;28;20060;-69
2023/12/16 00:07:10;;;;;;;0.30;0.30;;;;;;;16.24;45.75;103827.97;5050654;28;20405;-68
2023/12/16 00:09:35;;;;;;;0.38;0.38;;;;;;;16.84;44.44;103835.78;5033636;28;20037;-68
2023/12/16 00:12:00;;;;;;;0.40;0.40;;;;;;;15.92;46.64;103842.78;5051298;28;20159;-69
2023/12/16 00:14:26;;;;;;;0.20;0.20;;;;;;;15.52;47.35;103846.78;5051798;28;20124;-69
2023/12/16 00:16:51;;;;;;;0.40;0.40;;;;;;;16.02;46.49;103837.91;5051953;28;20055;-69
2023/12/16 00:19:16;;;;;;;0.38;0.38;;;;;;;15.81;46.78;103835.13;5051628;28;20124;-68
2023/12/16 00:21:42;;;;;;;0.40;0.40;;;;;;;15.42;47.65;103839.94;5052005;28;20387;-69
2023/12/16 00:24:07;;;;;;;0.40;0.40;;;;;;;14.94;49.13;103827.63;5051626;28;20060;-69
2023/12/16 00:26:33;;;;;;;0.35;0.35;;;;;;;15.04;48.97;103830.94;5051504;28;20095;-69
2023/12/16 00:28:58;;;;;;;0.40;0.40;;;;;;;15.55;47.57;103819.28;5051713;28;20037;-67
2023/12/16 00:31:24;;;;;;;0.40;0.40;;;;;;;14.93;49.19;103825.94;5051553;28;20033;-69
2023/12/16 00:33:49;;;;;;;0.25;0.25;;;;;;;15.11;48.79;103826.47;5051518;28;20410;-67
2023/12/16 00:36:15;;;;;;;0.30;0.30;;;;;;;15.27;48.76;103823.59;5051912;28;20117;-69
2023/12/16 00:38:40;;;;;;;0.32;0.32;;;;;;;15.55;47.57;103821.16;5051446;28;20036;-69
2023/12/16 00:41:05;;;;;;;0.32;0.32;;;;;;;15.06;49.19;103815.34;5051124;28;20033;-68
2023/12/16 00:43:31;;;;;;;0.30;0.30;;;;;;;14.82;49.66;103820.94;5051315;28;20033;-68
2023/12/16 00:45:56;;;;;;;0.40;0.40;;;;;;;15.13;49.03;103818.16;5051575;28;20057;-69
2023/12/16 00:48:22;;;;;;;0.30;0.30;;;;;;;15.24;49.19;103798.75;5051595;28;20064;-68
2023/12/16 00:50:47;;;;;;;0.40;0.40;;;;;;;15.19;48.57;103807.44;5050998;28;20120;-69
2023/12/16 00:53:13;;;;;;;0.40;0.40;;;;;;;15.24;48.59;103805.03;5051109;28;20491;-69
2023/12/16 00:55:40;;;;;;;0.22;0.22;;;;;;;14.78;49.56;103808.81;5050942;28;20033;-69
2023/12/16 00:58:06;;;;;;;0.30;0.30;;;;;;;15.21;49.01;103809.97;5032985;28;20044;-69
2023/12/16 01:00:31;;;;;;;0.30;0.30;;;;;;;15.35;48.36;103804.56;5054802;28;20417;-69
2023/12/16 01:02:58;;;;;;;0.32;0.32;;;;;;;14.75;50.11;103803.75;5070684;28;20041;-70
2023/12/16 01:05:24;;;;;;;0.20;0.20;;;;;;;14.96;48.98;103804.75;5070937;28;20041;-69
2023/12/16 01:07:49;;;;;;;0.30;0.30;;;;;;;15.72;47.62;103799.09;5070581;28;20047;-69
2023/12/16 01:10:15;;;;;;;0.30;0.30;;;;;;;15.37;48.12;103807.94;5070733;28;20044;-68
2023/12/16 01:12:40;;;;;;;0.50;0.50;;;;;;;15.61;47.14;103805.00;5071080;28;20031;-68
2023/12/16 01:15:06;;;;;;;0.40;0.40;;;;;;;15.30;48.69;103804.28;5070458;28;20038;-69
2023/12/16 01:17:32;;;;;;;0.20;0.20;;;;;;;15.15;48.33;103814.25;5070582;28;20048;-69
2023/12/16 01:19:58;;;;;;;0.30;0.30;;;;;;;15.78;47.43;103821.94;5070370;28;20432;-69
2023/12/16 01:22:23;;;;;;;0.28;0.28;;;;;;;15.51;46.95;103825.25;5070343;28;20033;-68
2023/12/16 01:24:49;;;;;;;0.32;0.32;;;;;;;15.83;46.67;103822.22;5070039;28;20036;-68
2023/12/16 01:27:14;;;;;;;0.40;0.40;;;;;;;15.33;48.11;103819.34;5070940;28;20059;-69
2023/12/16 01:29:40;;;;;;;0.30;0.30;;;;;;;15.18;48.73;103821.16;5070481;28;20145;-68
2023/12/16 01:32:05;;;;;;;0.30;0.30;;;;;;;14.94;48.69;103825.75;5070591;28;20044;-69
2023/12/16 01:34:31;;;;;;;0.38;0.38;;;;;;;15.31;48.42;103822.22;5070261;28;20033;-69
2023/12/16 01:36:56;;;;;;;0.40;0.40;;;;;;;15.10;49.13;103818.50;5070845;28;20115;-68
2023/12/16 01:39:21;;;;;;;0.28;0.28;;;;;;;15.02;48.90;103814.00;5052385;28;20107;-68
2023/12/16 01:41:47;;;;;;;0.30;0.30;;;;;;;14.70;50.04;103806.16;5070442;28;20052;-68
2023/12/16 01:44:12;;;;;;;0.35;0.35;;;;;;;14.97;49.49;103808.31;5070458;28;20511;-69
2023/12/16 01:46:38;;;;;;;0.35;0.35;;;;;;;15.12;48.79;103805.63;5070108;28;20040;-69
2023/12/16 01:49:04;;;;;;;0.32;0.32;;;;;;;15.36;48.30;103810.81;5069617;28;20040;-68
2023/12/16 01:51:31;;;;;;;0.30;0.30;;;;;;;15.04;49.41;103808.41;5075361;28;20424;-69
2023/12/16 01:53:57;;;;;;;0.40;0.40;;;;;;;15.15;48.70;103808.00;5090316;28;20127;-68
2023/12/16 01:56:22;;;;;;;0.35;0.35;;;;;;;15.31;48.63;103800.53;5090240;28;20111;-68
2023/12/16 01:58:49;;;;;;;0.20;0.20;;;;;;;15.63;47.78;103808.38;5081106;28;20597;-69
2023/12/16 02:01:15;;;;;;;0.28;0.28;;;;;;;15.47;48.30;103821.25;5069340;28;20040;-69
2023/12/16 02:03:41;;;;;;;0.30;0.30;;;;;;;15.01;49.69;103814.19;5070216;28;20086;-69
2023/12/16 02:06:06;;;;;;;0.50;0.50;;;;;;;15.07;48.98;103816.19;5069924;28;20047;-69
2023/12/16 02:08:32;;;;;;;0.40;0.40;;;;;;;15.56;47.85;103806.59;5069885;28;20078;-68
2023/12/16 02:10:58;;;;;;;0.20;0.20;;;;;;;15.32;48.30;103815.78;5070132;28;20350;-69
2023/12/16 02:13:24;;;;;;;0.40;0.40;;;;;;;15.58;47.94;103810.81;5069912;28;20037;-68
2023/12/16 02:15:49;;;;;;;0.43;0.43;;;;;;;15.07;49.51;103802.66;5052110;28;20021;-67
2023/12/16 02:18:15;;;;;;;0.30;0.30;;;;;;;15.34;48.87;103805.59;5070257;28;20042;-68
2023/12/16 02:20:40;;;;;;;0.20;0.20;;;;;;;15.67;47.83;103803.41;5051783;28;20040;-68
2023/12/16 02:23:12;;;;;;;0.40;0.40;;;;;;;15.41;48.44;103806.53;5069887;28;20505;-69
2023/12/16 02:25:37;;;;;;;0.38;0.38;;;;;;;14.85;49.65;103797.06;5070235;28;20043;-68
2023/12/16 02:28:03;;;;;;;0.30;0.30;;;;;;;15.33;48.98;103792.25;5070011;28;20511;-67
2023/12/16 02:30:28;;;;;;;0.22;0.22;;;;;;;14.62;50.92;103785.38;5070607;28;20056;-69
2023/12/16 02:32:55;;;;;;;0.30;0.30;;;;;;;14.59;50.87;103774.94;5069385;28;20097;-68
2023/12/16 02:35:21;;;;;;;0.32;0.32;;;;;;;14.76;50.48;103771.06;5069141;28;20399;-68
2023/12/16 02:37:46;;;;;;;0.50;0.50;;;;;;;14.66;50.93;103762.34;5069485;28;20132;-68
2023/12/16 02:40:12;;;;;;;0.30;0.30;;;;;;;14.39;51.09;103762.88;5069845;28;20039;-69
2023/12/16 02:42:37;;;;;;;0.25;0.25;;;;;;;14.08;53.03;103767.44;5070086;28;20107;-69
2023/12/16 02:45:03;;;;;;;0.20;0.20;;;;;;;14.29;52.02;103769.56;5069545;28;20124;-68
2023/12/16 02:47:29;;;;;;;0.30;0.30;;;;;;;14.31;52.19;103776.47;5069494;28;20048;-69
2023/12/16 02:49:54;;;;;;;0.43;0.43;;;;;;;14.35;52.40;103774.28;5069112;28;20086;-68
2023/12/16 02:52:20;;;;;;;0.30;0.30;;;;;;;14.37;51.79;103774.94;5069336;28;20528;-68
2023/12/16 02:54:45;;;;;;;0.20;0.20;;;;;;;13.93;52.94;103766.50;5075648;28;20122;-67
2023/12/16 02:57:10;;;;;;;0.20;0.20;;;;;;;13.53;54.87;103769.34;5089693;28;20103;-69
2023/12/16 02:59:36;;;;;;;0.40;0.40;;;;;;;13.85;53.63;103774.66;5089360;28;20040;-68
2023/12/16 03:02:01;;;;;;;0.30;0.30;;;;;;;14.04;52.55;103771.50;5078205;28;20075;-69
2023/12/16 03:04:26;;;;;;;0.30;0.30;;;;;;;13.69;54.51;103762.03;5069659;28;20496;-68
2023/12/16 03:06:52;;;;;;;0.40;0.40;;;;;;;13.21;55.79;103773.81;5069203;28;20113;-69
2023/12/16 03:09:17;;;;;;;0.30;0.30;;;;;;;13.97;53.42;103759.72;5069809;28;20048;-68
2023/12/16 03:11:42;;;;;;;0.30;0.30;;;;;;;14.20;53.55;103757.06;5069205;28;20484;-68
2023/12/16 03:14:08;;;;;;;0.25;0.25;;;;;;;13.35;55.87;103755.22;5069115;28;20508;-68
2023/12/16 03:16:33;;;;;;;0.30;0.30;;;;;;;13.71;55.30;103756.47;5069123;28;20041;-69
2023/12/16 03:18:59;;;;;;;0.50;0.50;;;;;;;13.70;54.44;103744.81;5069360;28;20032;-69
2023/12/16 03:21:24;;;;;;;0.45;0.45;;;;;;;14.37;52.76;103758.69;5069668;28;20063;-68
2023/12/16 03:23:50;;;;;;;0.52;0.52;;;;;;;14.77;51.66;103758.38;5068879;28;20064;-68
2023/12/16 03:26:15;;;;;;;0.20;0.20;;;;;;;14.18;53.18;103753.69;5073146;28;20032;-68
2023/12/16 03:28:40;;;;;;;0.40;0.40;;;;;;;14.10;54.00;103743.78;5072468;28;20484;-69
2023/12/16 03:31:06;;;;;;;0.40;0.40;;;;;;;14.46;52.75;103744.94;5072456;28;20087;-69
2023/12/16 03:33:34;;;;;;;0.20;0.20;;;;;;;14.77;51.88;103743.00;5073099;28;20459;-69
2023/12/16 03:35:59;;;;;;;0.40;0.40;;;;;;;14.31;54.27;103757.53;5072343;28;20068;-70
2023/12/16 03:38:24;;;;;;;0.40;0.40;;;;;;;14.18;54.24;103753.69;5072687;28;20042;-69
2023/12/16 03:40:50;;;;;;;0.40;0.40;;;;;;;14.33;54.01;103762.78;5053866;28;20090;-68
2023/12/16 03:43:17;;;;;;;0.40;0.40;;;;;;;14.73;52.94;103766.03;5052550;28;20111;-68
2023/12/16 03:45:43;;;;;;;0.30;0.30;;;;;;;14.35;53.99;103769.69;5053165;28;20476;-70
2023/12/16 03:48:08;;;;;;;0.40;0.40;;;;;;;13.87;55.70;103768.06;5052325;28;20090;-68
2023/12/16 03:50:33;;;;;;;0.20;0.20;;;;;;;14.23;55.13;103767.53;5054819;28;20044;-68
2023/12/16 03:53:00;;;;;;;0.45;0.45;;;;;;;13.63;57.26;103775.41;5072128;28;20102;-68
2023/12/16 03:55:25;;;;;;;0.38;0.38;;;;;;;13.74;56.80;103780.41;5071910;28;20058;-69
2023/12/16 03:57:51;;;;;;;0.30;0.30;;;;;;;14.20;56.64;103787.66;5072079;28;20115;-69
2023/12/16 04:00:16;;;;;;;0.40;0.40;;;;;;;14.49;54.89;103789.72;5072543;28;20066;-68
2023/12/16 04:02:42;;;;;;;0.40;0.40;;;;;;;13.55;58.16;103781.69;5071778;28;20076;-68
2023/12/16 04:05:08;;;;;;;0.30;0.30;;;;;;;13.69;57.75;103780.13;5071826;28;20051;-69
2023/12/16 04:07:33;;;;;;;0.30;0.30;;;;;;;13.52;58.20;103771.19;5072239;28;20066;-69
2023/12/16 04:09:59;;;;;;;0.30;0.30;;;;;;;14.03;57.28;103786.88;5072196;28;20112;-69
2023/12/16 04:12:25;;;;;;;0.40;0.40;;;;;;;14.09;57.27;103785.38;5072537;28;20024;-68
2023/12/16 04:14:50;;;;;;;0.38;0.38;;;;;;;14.06;56.09;103781.16;5071959;28;20154;-68
2023/12/16 04:17:16;;;;;;;0.35;0.35;;;;;;;14.71;54.45;103769.94;5071944;28;20041;-69
2023/12/16 04:19:52;;;;;;;0.22;0.22;;;;;;;14.53;54.91;103770.25;5071688;28;20488;-69
2023/12/16 04:22:18;;;;;;;0.30;0.30;;;;;;;13.76;57.47;103775.69;5071209;28;20036;-69
2023/12/16 04:24:44;;;;;;;0.30;0.30;;;;;;;14.07;56.80;103776.59;5076090;28;20024;-65
2023/12/16 04:27:09;;;;;;;0.30;0.30;;;;;;;13.83;57.64;103773.97;5072075;28;20387;-69
2023/12/16 04:29:34;;;;;;;0.32;0.32;;;;;;;14.48;56.21;103775.38;5071498;28;20041;-69
2023/12/16 04:32:00;;;;;;;0.30;0.30;;;;;;;14.19;56.62;103774.31;5071537;28;20135;-68
2023/12/16 04:34:25;;;;;;;0.20;0.20;;;;;;;14.19;56.78;103779.72;5071201;28;20112;-69
2023/12/16 04:36:50;;;;;;;0.22;0.22;;;;;;;14.88;54.84;103771.47;5069967;28;20072;-69
2023/12/16 04:39:16;;;;;;;0.40;0.40;;;;;;;14.85;54.18;103774.56;5071735;28;20519;-68
2023/12/16 04:41:41;;;;;;;0.30;0.30;;;;;;;15.44;52.68;103768.28;5071182;28;20058;-68
2023/12/16 04:44:06;;;;;;;0.30;0.30;;;;;;;15.40;51.93;103769.63;5070997;28;20571;-69
2023/12/16 04:46:32;;;;;;;0.60;0.60;;;;;;;15.03;53.18;103777.78;5070979;28;20539;-69
2023/12/16 04:49:25;;;;;;;0.20;0.20;;;;;;;15.75;51.44;103771.63;5070693;28;20488;-68
2023/12/16 04:51:50;;;;;;;0.40;0.40;;;;;;;14.69;53.97;103763.88;5070514;28;20025;-70
2023/12/16 04:54:16;;;;;;;0.30;0.30;;;;;;;15.34;52.28;103756.81;5071060;28;20524;-68
2023/12/16 04:56:41;;;;;;;0.50;0.50;;;;;;;15.10;52.74;103757.06;5070719;28;20538;-69
2023/12/16 04:59:07;;;;;;;0.40;0.40;;;;;;;14.66;55.26;103753.41;5070518;28;20044;-69
2023/12/16 05:01:32;;;;;;;0.30;0.30;;;;;;;14.51;55.08;103758.75;5070412;28;20070;-70
2023/12/16 05:03:57;;;;;;;0.30;0.30;;;;;;;13.80;57.81;103772.47;5069951;28;20060;-68
2023/12/16 05:06:23;;;;;;;0.30;0.30;;;;;;;13.88;58.50;103777.84;5082531;28;20043;-69
2023/12/16 05:08:48;;;;;;;0.22;0.22;;;;;;;13.96;58.74;103772.41;5058665;28;20055;-68
2023/12/16 05:11:13;;;;;;;0.20;0.20;;;;;;;14.26;57.92;103784.25;5070351;28;20059;-69
2023/12/16 05:13:39;;;;;;;0.20;0.20;;;;;;;14.60;55.82;103773.91;5070309;28;20045;-69
2023/12/16 05:16:05;;;;;;;0.40;0.40;;;;;;;13.63;58.56;103780.81;5069907;28;20039;-68
2023/12/16 05:18:30;;;;;;;0.30;0.30;;;;;;;14.02;58.12;103777.09;5070811;28;20184;-68
2023/12/16 05:20:55;;;;;;;0.38;0.38;;;;;;;13.58;60.25;103775.91;5052214;28;20079;-68
2023/12/16 05:23:21;;;;;;;0.30;0.30;;;;;;;13.71;59.96;103769.97;5070070;28;20032;-69
2023/12/16 05:25:46;;;;;;;0.40;0.40;;;;;;;13.73;59.26;103770.66;5070371;28;20175;-68
2023/12/16 05:28:11;;;;;;;0.30;0.30;;;;;;;13.97;59.25;103759.72;5070002;28;20043;-69
2023/12/16 05:30:37;;;;;;;0.32;0.32;;;;;;;13.49;60.00;103760.75;5070835;28;20512;-69
2023/12/16 05:33:02;;;;;;;0.20;0.20;;;;;;;13.99;58.89;103761.22;5070228;28;20102;-69
2023/12/16 05:35:28;;;;;;;0.30;0.30;;;;;;;13.86;58.94;103774.47;5070252;28;20047;-68
2023/12/16 05:37:53;;;;;;;0.30;0.30;;;;;;;13.80;59.07;103766.22;5070540;28;20072;-68
2023/12/16 05:40:18;;;;;;;0.40;0.40;;;;;;;12.88;62.51;103763.16;5070047;28;20064;-68
2023/12/16 05:42:44;;;;;;;0.20;0.20;;;;;;;13.35;61.01;103761.47;5070524;28;20081;-66
2023/12/16 05:45:09;;;;;;;0.30;0.30;;;;;;;13.71;60.16;103764.56;5070470;28;20111;-68
2023/12/16 05:47:35;;;;;;;0.47;0.47;;;;;;;13.26;61.94;103748.16;5051615;28;20033;-69
2023/12/16 05:50:02;;;;;;;0.40;0.40;;;;;;;13.21;61.75;103741.41;5051736;28;20056;-69
2023/12/16 05:52:27;;;;;;;0.15;0.15;;;;;;;13.17;61.70;103741.91;5069968;28;20488;-69
2023/12/16 05:54:52;;;;;;;0.40;0.40;;;;;;;13.41;60.77;103752.66;5069501;28;20046;-67
2023/12/16 05:57:18;;;;;;;0.28;0.28;;;;;;;13.45;60.86;103758.56;5070534;28;20024;-69
2023/12/16 05:59:43;;;;;;;0.40;0.40;;;;;;;13.35;61.92;103757.91;5070172;28;20112;-68
2023/12/16 06:02:08;;;;;;;0.30;0.30;;;;;;;12.96;62.47;103761.31;5069698;28;20179;-68
2023/12/16 06:04:34;;;;;;;0.32;0.32;;;;;;;13.30;61.76;103763.00;5069529;28;20110;-68
2023/12/16 06:06:59;;;;;;;0.30;0.30;;;;;;;13.05;62.16;103762.19;5069565;28;20056;-68
2023/12/16 06:09:25;;;;;;;0.32;0.32;;;;;;;13.15;62.08;103761.00;5070147;28;20132;-69
2023/12/16 06:11:50;;;;;;;0.40;0.40;;;;;;;13.18;62.21;103755.25;5069377;28;20208;-68
2023/12/16 06:14:16;;;;;;;0.30;0.30;;;;;;;13.21;62.17;103764.84;5069627;28;20044;-69
2023/12/16 06:16:42;;;;;;;0.30;0.30;;;;;;;13.00;62.21;103772.63;5069427;28;20127;-71
2023/12/16 06:19:07;;;;;;;0.32;0.32;;;;;;;13.05;62.93;103773.81;5069475;28;20517;-68
2023/12/16 06:21:33;;;;;;;0.30;0.30;;;;;;;13.06;62.71;103767.44;5070014;28;20360;-69
2023/12/16 06:23:58;;;;;;;0.40;0.40;;;;;;;12.74;64.75;103764.69;5074416;28;20070;-68
2023/12/16 06:26:24;;;;;;;0.28;0.28;;;;;;;12.90;63.78;103769.25;5089549;28;20119;-69
2023/12/16 06:28:49;;;;;;;0.38;0.38;;;;;;;12.90;63.84;103767.41;5077354;28;20516;-68
2023/12/16 06:31:16;;;;;;;0.20;0.20;;;;;;;13.32;62.29;103769.06;5069216;28;20055;-68
2023/12/16 06:33:41;;;;;;;0.40;0.40;;;;;;;13.62;60.75;103768.31;5069764;28;20043;-69
2023/12/16 06:36:06;;;;;;;0.30;0.30;;;;;;;12.77;64.02;103769.78;5069185;28;20032;-68
2023/12/16 06:38:32;;;;;;;0.20;0.20;;;;;;;12.53;64.86;103768.88;5069118;28;20519;-68
2023/12/16 06:40:57;;;;;;;0.30;0.30;;;;;;;12.96;63.35;103765.88;5069196;28;20511;-68
2023/12/16 06:43:23;;;;;;;0.28;0.28;;;;;;;12.85;63.89;103768.91;5069090;28;20492;-69
2023/12/16 06:45:48;;;;;;;0.20;0.20;;;;;;;13.29;62.14;103772.94;5050737;28;20078;-68
2023/12/16 06:48:13;;;;;;;0.30;0.30;;;;;;;13.33;62.74;103770.75;5069614;28;20480;-69
2023/12/16 06:50:39;;;;;;;0.52;0.52;;;;;;;12.33;65.55;103777.28;5069104;28;20047;-69
2023/12/16 06:53:04;;;;;;;0.20;0.20;;;;;;;13.16;63.20;103772.63;5069015;28;20047;-69
2023/12/16 06:55:29;;;;;;;0.30;0.30;;;;;;;13.01;63.10;103777.84;5069265;28;20124;-69
2023/12/16 06:57:55;;;;;;;0.28;0.28;;;;;;;13.08;63.41;103773.50;5069381;28;20114;-68
2023/12/16 07:00:20;;;;;;;0.30;0.30;;;;;;;13.15;62.87;103777.19;5053735;28;20139;-69
2023/12/16 07:02:46;;;;;;;0.30;0.30;;;;;;;12.88;64.59;103788.31;5072584;28;20119;-68
2023/12/16 07:05:11;;;;;;;0.30;0.30;;;;;;;12.79;65.02;103793.88;5073032;28;20515;-69
2023/12/16 07:07:37;;;;;;;0.30;0.30;;;;;;;13.39;62.12;103789.81;5072934;28;20110;-68
2023/12/16 07:10:05;;;;;;;0.38;0.38;;;;;;;13.23;61.69;103794.41;5073139;28;20381;-68
2023/12/16 07:12:30;;;;;;;0.43;0.43;;;;;;;13.16;63.62;103797.78;5073295;28;20056;-70
2023/12/16 07:14:56;;;;;;;0.30;0.30;;;;;;;13.19;62.69;103789.34;5072912;28;20079;-69
2023/12/16 07:17:21;;;;;;;0.40;0.40;;;;;;;13.49;61.57;103786.91;5054691;28;20127;-69
2023/12/16 07:19:46;;;;;;;0.28;0.28;;;;;;;13.08;63.18;103796.94;5073012;28;20132;-69
2023/12/16 07:22:16;;;;;;;0.30;0.30;;;;;;;12.86;64.75;103789.47;5072577;28;20170;-70
2023/12/16 07:24:41;;;;;;;0.40;0.40;;;;;;;13.33;63.01;103792.34;5072635;28;20039;-68
2023/12/16 07:27:07;;;;;;;0.30;0.30;;;;;;;13.59;61.81;103790.28;5072325;28;20123;-68
2023/12/16 07:29:35;;;;;;;0.30;0.30;;;;;;;13.23;63.13;103786.31;5072467;28;20045;-68
2023/12/16 07:32:02;;;;;;;0.30;0.30;;;;;;;13.10;64.17;103786.81;5072411;28;20037;-69
2023/12/16 07:34:27;;;;;;;0.30;0.30;;;;;;;13.23;62.80;103799.81;5072598;28;20037;-68
2023/12/16 07:36:53;;;;;;;0.30;0.30;;;;;;;13.23;63.55;103792.53;5072685;28;20028;-69
2023/12/16 07:39:18;;;;;;;0.35;0.35;;;;;;;12.39;67.11;103805.44;5072791;28;20029;-69
2023/12/16 07:41:44;;;;;;;0.30;0.30;;;;;;;13.38;63.17;103793.53;5072470;28;20041;-68
2023/12/16 07:44:11;;;;;;;0.28;0.28;;;;;;;12.80;64.60;103801.81;5072251;28;20048;-68
2023/12/16 07:46:39;;;;;;;0.47;0.47;;;;;;;13.30;63.02;103804.38;5053888;28;20040;-69
2023/12/16 07:49:04;;;;;;;0.50;0.50;;;;;;;13.51;62.47;103801.09;5072039;28;20109;-69
2023/12/16 07:51:29;;;;;;;0.30;0.30;;;;;;;12.79;64.19;103813.63;5072508;28;20502;-69
2023/12/16 07:53:55;;;;;;;0.40;0.40;;;;;;;13.26;62.83;103811.13;5071922;28;20037;-69
2023/12/16 07:56:22;;;;;;;0.20;0.20;;;;;;;13.44;62.16;103819.03;5072039;28;20051;-68
2023/12/16 07:58:48;;;;;;;0.25;0.25;;;;;;;12.66;65.17;103815.94;5072286;28;20507;-68
2023/12/16 08:01:15;;;;;;;0.40;0.40;;;;;;;13.30;63.83;103811.59;5071594;28;20076;-69
2023/12/16 08:03:41;;;;;;;0.30;0.30;;;;;;;13.33;64.00;103820.22;5072471;28;20024;-69
2023/12/16 08:06:08;;;;;;;0.30;0.30;;;;;;;13.19;64.73;103819.03;5071863;28;20040;-68
2023/12/16 08:08:34;;;;;;;0.30;0.30;;;;;;;13.74;62.36;103824.50;5072027;28;20087;-69
2023/12/16 08:11:00;;;;;;;0.38;0.38;;;;;;;13.44;62.62;103822.56;5059998;28;20428;-68
2023/12/16 08:13:25;;;;;;;0.25;0.25;;;;;;;13.54;62.62;103816.97;5051432;28;20037;-68
2023/12/16 08:15:50;;;;;;;0.30;0.30;;;;;;;14.29;60.55;103815.56;5040555;28;20028;-69
2023/12/16 08:18:16;;;;;;;0.30;0.30;;;;;;;13.20;64.03;103819.91;5052220;28;20059;-69
2023/12/16 08:20:41;;;;;;;0.35;0.35;;;;;;;13.73;62.49;103820.13;5050975;28;20596;-69
2023/12/16 08:23:08;;;;;;;0.30;0.30;;;;;;;13.43;63.60;103815.47;5051480;28;20047;-69
2023/12/16 08:25:35;;;;;;;0.30;0.30;;;;;;;13.19;63.91;103826.28;5051135;28;20041;-69
2023/12/16 08:28:00;;;;;;;0.30;0.30;;;;;;;13.49;63.92;103833.69;5051542;28;20449;-67
2023/12/16 08:30:26;;;;;;;0.40;0.40;;;;;;;12.92;65.46;103851.75;5051417;28;20052;-69
2023/12/16 08:32:51;;;;;;;0.30;0.30;;;;;;;13.56;63.67;103831.16;5033206;28;20354;-69
2023/12/16 08:35:17;;;;;;;0.30;0.30;;;;;;;13.65;63.37;103828.28;5051315;28;20048;-69
2023/12/16 08:37:43;;;;;;;0.30;0.30;;;;;;;13.94;62.84;103831.22;5051114;28;20048;-69
2023/12/16 08:40:09;;;;;;;0.22;0.22;;;;;;;14.28;61.57;103841.75;5051194;28;20048;-69
2023/12/16 08:42:35;;;;;;;0.40;0.40;;;;;;;13.74;63.28;103839.88;5052066;28;20392;-69
2023/12/16 08:45:02;;;;;;;0.28;0.28;;;;;;;14.35;61.52;103841.91;5069594;28;20041;-69
2023/12/16 08:47:28;;;;;;;0.40;0.40;;;;;;;14.42;61.00;103843.72;5060578;28;20053;-69
2023/12/16 08:49:54;;;;;;;0.30;0.30;;;;;;;13.86;63.12;103843.91;5050535;28;20033;-69
2023/12/16 08:52:19;;;;;;;0.40;0.40;;;;;;;14.55;60.70;103857.50;5050565;28;20036;-69
2023/12/16 08:54:44;;;;;;;0.30;0.30;;;;;;;13.69;63.06;103858.50;5050501;28;20035;-69
2023/12/16 08:57:10;;;;;;;0.45;0.45;;;;;;;14.19;63.46;103869.00;5051182;28;20439;-70
2023/12/16 08:59:35;;;;;;;0.30;0.30;;;;;;;13.59;64.16;103864.09;5050505;28;20045;-69
2023/12/16 09:02:02;;;;;;;0.32;0.32;;;;;;;13.87;63.63;103862.69;5059422;28;20071;-69
2023/12/16 09:04:28;;;;;;;0.30;0.30;;;;;;;14.15;61.22;103865.78;5070609;28;20449;-69
2023/12/16 09:06:54;;;;;;;0.20;0.20;;;;;;;14.25;61.99;103861.00;5045497;28;20071;-68
2023/12/16 09:09:20;;;;;;;0.30;0.30;;;;;;;14.24;61.70;103866.59;5070755;28;20116;-69
2023/12/16 09:11:45;;;;;;;0.40;0.40;;;;;;;14.87;60.39;103881.69;5070116;28;20132;-69
2023/12/16 09:14:11;;;;;;;0.20;0.20;;;;;;;14.51;60.57;103888.66;5070127;28;20078;-69
2023/12/16 09:16:36;;;;;;;0.20;0.20;;;;;;;14.73;59.89;103895.13;5068357;28;20046;-68
2023/12/16 09:19:03;;;;;;;0.40;0.40;;;;;;;14.06;61.74;103904.69;5069955;28;20028;-69
2023/12/16 09:21:29;;;;;;;0.32;0.32;;;;;;;13.68;64.30;103895.47;5060464;28;20419;-68
2023/12/16 09:23:55;;;;;;;0.22;0.22;;;;;;;14.42;60.93;103889.72;5035889;28;20032;-70
2023/12/16 09:26:23;;;;;;;0.20;0.20;;;;;;;13.92;62.82;103886.47;5056906;28;20124;-70
2023/12/16 09:28:49;;;;;;;0.20;0.20;;;;;;;14.32;61.76;103891.78;5061269;28;20048;-69
2023/12/16 09:31:15;;;;;;;0.20;0.20;;;;;;;14.52;61.65;103890.34;5070025;28;20538;-69
2023/12/16 09:33:41;;;;;;;0.32;0.32;;;;;;;14.88;60.40;103893.31;5055481;28;20025;-69
2023/12/16 09:36:12;;;;;;;0.20;0.20;;;;;;;14.52;61.37;103882.22;5049531;28;20156;-70
2023/12/16 09:38:37;;;;;;;;;;;;;;;14.58;61.76;103900.47;5050389;28;20063;-69
2023/12/16 09:41:03;;;;;;;0.30;0.30;;;;;;;14.32;62.11;103902.59;5049564;28;20288;-69
2023/12/16 09:43:33;;;;;;;0.50;0.50;;;;;;;13.97;63.60;103901.16;5060354;28;20614;-69
2023/12/16 09:45:59;;;;;;;0.30;0.30;;;;;;;14.30;63.72;103891.13;5052924;28;20035;-69
2023/12/16 09:48:24;;;;;;;0.20;0.20;;;;;;;14.06;64.27;103892.00;5062958;28;20108;-70
2023/12/16 09:50:50;;;;;;;0.40;0.40;;;;;;;14.29;64.26;103894.00;5057611;28;20132;-69
2023/12/16 09:53:15;;;;;;;0.22;0.22;;;;;;;14.55;63.02;103903.50;5062487;28;20035;-69
2023/12/16 09:55:41;;;;;;;0.30;0.30;;;;;;;13.91;65.17;103892.91;5059335;28;20028;-69
2023/12/16 09:58:12;;;;;;;0.50;0.50;;;;;;;14.09;66.52;103890.84;5062178;28;20115;-70
2023/12/16 10:00:45;;;;;;;0.40;0.40;;;;;;;15.09;61.96;103893.53;5057750;28;20025;-69
2023/12/16 10:03:16;;;;;;;0.30;0.30;;;;;;;14.59;63.73;103895.88;5057237;28;20055;-70
2023/12/16 10:05:43;;;;;;;;;;;;;;;14.89;62.36;103893.16;5059089;28;20036;-68
2023/12/16 10:08:09;;;;;;;0.47;0.47;;;;;;;14.20;66.65;103886.88;5055077;28;19973;-69
2023/12/16 10:10:34;;;;;;;0.30;0.30;;;;;;;14.72;64.43;103894.28;5066967;28;20115;-70
2023/12/16 10:13:04;;;;;;;0.30;0.30;;;;;;;14.96;63.48;103893.28;5061171;28;20029;-69
2023/12/16 10:15:31;;;;;;;0.40;0.40;;;;;;;14.04;68.01;103893.19;5063696;28;20036;-70
2023/12/16 10:17:59;;;;;;;0.38;0.38;;;;;;;14.35;66.10;103898.72;5057601;28;20033;-70
2023/12/16 10:20:25;;;;;;;0.28;0.28;;;;;;;14.62;65.60;103890.94;5056405;28;20492;-70
2023/12/16 10:22:50;;;;;;;0.20;0.20;;;;;;;15.19;63.38;103896.00;5057215;28;20059;-70
2023/12/16 10:25:18;;;;;;;0.20;0.20;;;;;;;14.12;67.03;103887.75;5059471;28;20036;-69
2023/12/16 10:27:43;;;;;;;0.20;0.20;;;;;;;14.10;68.81;103881.69;5059220;28;20020;-70
2023/12/16 10:30:09;;;;;;;0.32;0.32;;;;;;;14.57;66.66;103893.34;5058145;28;20372;-68
2023/12/16 10:32:38;;;;;;;0.30;0.30;;;;;;;15.27;64.29;103895.94;5062529;28;20400;-69
2023/12/16 10:35:05;;;;;;;0.28;0.28;;;;;;;14.64;66.31;103891.59;5059347;28;20055;-68
2023/12/16 10:37:30;;;;;;;0.20;0.20;;;;;;;15.06;65.79;103883.03;5061086;28;20082;-69
2023/12/16 10:39:56;;;;;;;0.30;0.30;;;;;;;14.91;65.93;103882.16;5063770;28;20017;-70
2023/12/16 10:42:21;;;;;;;0.20;0.20;;;;;;;14.56;67.47;103874.59;5061365;28;20012;-70
2023/12/16 10:44:49;;;;;;;0.22;0.22;;;;;;;14.47;67.61;103872.94;5063235;28;20070;-69
2023/12/16 10:47:17;;;;;;;0.40;0.40;;;;;;;14.94;66.35;103863.66;5061093;28;20090;-69
2023/12/16 10:49:44;;;;;;;0.45;0.45;;;;;;;14.18;70.18;103859.16;5065164;28;20025;-69
2023/12/16 10:52:12;;;;;;;0.30;0.30;;;;;;;14.78;67.51;103855.66;5061297;28;20505;-68
2023/12/16 10:54:47;;;;;;;0.20;0.20;;;;;;;15.01;67.94;103854.81;5063969;28;20103;-69
2023/12/16 10:57:28;;;;;;;0.25;0.25;;;;;;;14.66;68.84;103846.25;5064100;28;20068;-70
2023/12/16 11:00:03;;;;;;;0.30;0.30;;;;;;;14.47;71.07;103841.31;5063298;28;20041;-70
2023/12/16 11:02:32;;;;;;;0.40;0.40;;;;;;;14.72;68.47;103844.72;5058824;28;20119;-68
2023/12/16 11:05:07;;;;;;;0.20;0.20;;;;;;;14.51;71.68;103831.81;5063167;28;20030;-69
2023/12/16 11:07:38;;;;;;;0.30;0.30;;;;;;;15.34;67.71;103840.81;5063813;28;20040;-69
2023/12/16 11:10:05;;;;;;;0.40;0.40;;;;;;;14.96;68.18;103834.53;5060313;28;20048;-69
2023/12/16 11:12:33;;;;;;;0.20;0.20;;;;;;;14.87;69.28;103826.66;5066955;28;20020;-69
2023/12/16 11:15:00;;;;;;;0.40;0.40;;;;;;;15.14;68.57;103819.84;5063365;28;20119;-69
2023/12/16 11:17:33;;;;;;;0.50;0.50;;;;;;;14.52;71.19;103828.09;5063897;28;20025;-69
2023/12/16 11:20:08;;;;;;;0.20;0.20;;;;;;;14.69;71.52;103818.84;5064949;28;20655;-69
2023/12/16 11:22:44;;;;;;;0.30;0.30;;;;;;;14.84;71.20;103822.44;5063955;28;20036;-69